Time;durP1;ratioP1;P1;durP2;ratioP2;P2;SDS_P1;SDS_P2;PMS_P1;PMS_P2;Temp;Humidity;BMP_temperature;BMP_pressure;BME280_temperature;BME280_humidity;BME280_pressure;Samples;Min_cycle;Max_cycle;Signal;HPM_P1;HPM_P2
2021/03/18 00:01:42;;;;;;;2.80;1.63;;;;;;;2.28;100.00;91647.00;4994351;28;20283;-86
2021/03/18 00:04:11;;;;;;;2.30;1.47;;;;;;;2.40;100.00;91632.31;4994463;28;20242;-86
2021/03/18 00:06:40;;;;;;;3.07;2.03;;;;;;;2.34;100.00;91643.53;4994588;28;20669;-87
2021/03/18 00:09:07;;;;;;;2.33;1.57;;;;;;;2.43;100.00;91646.63;4994973;28;20713;-86
2021/03/18 00:11:35;;;;;;;1.77;1.63;;;;;;;2.37;100.00;91643.88;4994569;28;20200;-85
2021/03/18 00:14:02;;;;;;;1.07;0.97;;;;;;;2.35;100.00;91647.72;4994876;28;20321;-86
2021/03/18 00:16:28;;;;;;;1.17;1.07;;;;;;;2.40;100.00;91627.13;4994367;28;20243;-86
2021/03/18 00:18:56;;;;;;;0.80;0.80;;;;;;;2.35;100.00;91632.16;4994499;28;20200;-86
2021/03/18 00:21:23;;;;;;;1.23;0.97;;;;;;;2.49;100.00;91618.00;4994167;28;20291;-85
2021/03/18 00:23:52;;;;;;;1.20;1.10;;;;;;;2.45;100.00;91619.44;4994383;28;20247;-86
2021/03/18 00:26:21;;;;;;;1.73;1.30;;;;;;;2.32;100.00;91632.59;4993923;28;20234;-87
2021/03/18 00:28:49;;;;;;;2.20;1.37;;;;;;;2.36;100.00;91613.03;4994281;28;20250;-85
2021/03/18 00:31:18;;;;;;;3.43;1.40;;;;;;;2.37;100.00;91593.88;4993938;28;20332;-86
2021/03/18 00:33:45;;;;;;;1.20;1.10;;;;;;;2.30;100.00;91591.38;4993974;28;20290;-86
2021/03/18 00:36:12;;;;;;;1.40;1.30;;;;;;;2.24;100.00;91594.09;4993723;28;20197;-86
2021/03/18 00:38:39;;;;;;;1.07;1.00;;;;;;;2.25;100.00;91559.38;4993845;28;20196;-86
2021/03/18 00:41:09;;;;;;;2.43;1.20;;;;;;;2.28;100.00;91546.00;4993931;28;20193;-86
2021/03/18 00:43:36;;;;;;;1.30;1.20;;;;;;;2.16;100.00;91550.38;4994191;28;20196;-85
2021/03/18 00:46:04;;;;;;;1.00;0.97;;;;;;;2.30;100.00;91518.84;4993541;28;20264;-86
2021/03/18 00:48:31;;;;;;;1.73;1.20;;;;;;;2.45;100.00;91497.66;4993921;28;20625;-87
2021/03/18 00:51:01;;;;;;;1.00;1.00;;;;;;;2.53;100.00;91493.94;4993574;28;20235;-86
2021/03/18 00:53:31;;;;;;;2.37;1.80;;;;;;;2.53;100.00;91497.34;4993607;28;20236;-86
2021/03/18 00:55:58;;;;;;;1.60;1.50;;;;;;;2.46;100.00;91527.78;4993869;28;20190;-85
2021/03/18 00:58:26;;;;;;;2.10;1.57;;;;;;;2.51;100.00;91516.72;4993668;28;20306;-86
2021/03/18 01:00:54;;;;;;;1.30;1.20;;;;;;;2.37;100.00;91527.31;4993409;28;20296;-86
2021/03/18 01:03:22;;;;;;;1.30;1.20;;;;;;;2.30;100.00;91521.44;4993320;28;20632;-86
2021/03/18 01:05:52;;;;;;;1.00;0.90;;;;;;;2.27;100.00;91521.09;4993274;28;20701;-86
2021/03/18 01:08:22;;;;;;;1.13;1.13;;;;;;;2.15;100.00;91505.56;4993614;28;20283;-86
2021/03/18 01:10:53;;;;;;;1.83;1.30;;;;;;;2.27;100.00;91469.31;4993332;28;20198;-86
2021/03/18 01:13:20;;;;;;;2.43;2.23;;;;;;;2.23;100.00;91460.41;4993815;28;20196;-85
2021/03/18 01:15:49;;;;;;;2.93;2.13;;;;;;;2.26;100.00;91439.25;4993463;28;20200;-86
2021/03/18 01:18:17;;;;;;;2.67;2.47;;;;;;;2.35;100.00;91422.31;4993601;28;20283;-86
2021/03/18 01:20:44;;;;;;;2.33;2.13;;;;;;;2.32;100.00;91428.75;4993209;28;20265;-87
2021/03/18 01:23:11;;;;;;;1.93;1.83;;;;;;;2.38;100.00;91417.47;4993124;28;20243;-86
2021/03/18 01:25:38;;;;;;;2.37;2.00;;;;;;;2.46;100.00;91416.34;4993088;28;20255;-86
2021/03/18 01:28:09;;;;;;;2.33;2.17;;;;;;;2.38;100.00;91438.19;4993013;28;20263;-85
2021/03/18 01:30:38;;;;;;;2.17;2.07;;;;;;;2.42;100.00;91438.53;4993092;28;20235;-85
2021/03/18 01:33:06;;;;;;;3.03;2.40;;;;;;;2.28;100.00;91457.91;4993005;28;20211;-86
2021/03/18 01:35:33;;;;;;;3.37;2.57;;;;;;;2.29;100.00;91467.28;4992902;28;20201;-86
2021/03/18 01:38:00;;;;;;;3.00;2.20;;;;;;;2.27;100.00;91475.25;4993060;28;20210;-86
2021/03/18 01:40:31;;;;;;;3.43;2.30;;;;;;;2.29;100.00;91470.66;4992973;28;20578;-86
2021/03/18 01:42:58;;;;;;;4.40;2.73;;;;;;;2.22;100.00;91482.13;4992941;28;20189;-86
2021/03/18 01:45:25;;;;;;;4.60;2.73;;;;;;;2.23;100.00;91481.13;4992889;28;20363;-86
2021/03/18 01:47:54;;;;;;;2.47;2.20;;;;;;;2.35;100.00;91466.34;4993047;28;20264;-87
2021/03/18 01:50:25;;;;;;;2.13;2.00;;;;;;;2.42;100.00;91463.66;4995171;28;20196;-86
2021/03/18 01:52:52;;;;;;;2.70;2.27;;;;;;;2.52;100.00;91456.09;4997705;28;20568;-86
2021/03/18 01:55:24;;;;;;;2.17;1.97;;;;;;;2.53;100.00;91470.63;4997173;28;20275;-87
2021/03/18 01:57:51;;;;;;;1.87;1.77;;;;;;;2.44;100.00;91496.09;4997370;28;20236;-86
2021/03/18 02:00:20;;;;;;;2.07;1.83;;;;;;;2.49;100.00;91503.97;4997194;28;20197;-86
2021/03/18 02:02:48;;;;;;;2.57;2.33;;;;;;;2.42;100.00;91526.63;4997285;28;20247;-86
2021/03/18 02:05:15;;;;;;;2.43;2.23;;;;;;;2.38;100.00;91541.03;4996653;28;20221;-86
2021/03/18 02:07:42;;;;;;;2.47;2.20;;;;;;;2.41;100.00;91545.00;4997121;28;20200;-86
2021/03/18 02:10:11;;;;;;;2.53;2.33;;;;;;;2.39;100.00;91553.00;4996636;28;20694;-86
2021/03/18 02:12:38;;;;;;;3.37;2.40;;;;;;;2.45;100.00;91554.69;4996842;28;20258;-86
2021/03/18 02:15:08;;;;;;;2.30;2.10;;;;;;;2.37;100.00;91555.03;4996806;28;20198;-86
2021/03/18 02:17:47;;;;;;;2.70;2.50;;;;;;;2.45;100.00;91544.31;4996664;28;20231;-86
2021/03/18 02:20:54;;;;;;;3.87;2.60;;;;;;;2.42;100.00;91547.34;4996662;28;20191;-86
2021/03/18 02:23:58;;;;;;;2.37;2.17;;;;;;;2.61;100.00;91517.72;4996766;28;20701;-86
2021/03/18 02:26:44;;;;;;;2.03;1.93;;;;;;;2.41;100.00;91539.81;4996310;28;20219;-86
2021/03/18 02:29:30;;;;;;;2.67;2.47;;;;;;;2.37;100.00;91542.06;4996345;28;20283;-86
2021/03/18 02:32:22;;;;;;;2.57;2.37;;;;;;;2.27;100.00;91547.00;4996194;28;20192;-86
2021/03/18 02:35:21;;;;;;;2.60;2.00;;;;;;;2.31;100.00;91527.41;4996411;28;20192;-86
2021/03/18 02:37:58;;;;;;;2.83;2.40;;;;;;;2.46;100.00;91514.00;4996260;28;20184;-86
2021/03/18 02:40:26;;;;;;;2.13;1.93;;;;;;;2.34;100.00;91539.91;4995978;28;20568;-86
2021/03/18 02:42:57;;;;;;;2.00;1.90;;;;;;;2.38;100.00;91539.22;4996329;28;20391;-86
2021/03/18 02:45:28;;;;;;;2.67;2.30;;;;;;;2.27;100.00;91547.78;4995847;28;20228;-86
2021/03/18 02:47:59;;;;;;;2.30;2.10;;;;;;;2.33;100.00;91539.13;4995834;28;20275;-86
2021/03/18 02:50:28;;;;;;;2.23;2.03;;;;;;;2.28;100.00;91539.00;4996065;28;20188;-86
2021/03/18 02:52:57;;;;;;;2.77;2.57;;;;;;;2.26;100.00;91532.50;4996062;28;20283;-86
2021/03/18 02:55:24;;;;;;;2.37;2.17;;;;;;;2.31;100.00;91517.84;4995923;28;20287;-86
2021/03/18 02:57:53;;;;;;;2.40;2.20;;;;;;;2.23;100.00;91525.16;4995920;28;20200;-86
2021/03/18 03:00:22;;;;;;;2.53;2.33;;;;;;;2.25;100.00;91525.72;4995364;28;20744;-86
2021/03/18 03:02:50;;;;;;;2.30;2.10;;;;;;;2.33;100.00;91513.22;4995545;28;20943;-86
2021/03/18 03:05:20;;;;;;;2.00;1.90;;;;;;;2.23;100.00;91507.03;4995536;28;20220;-86
2021/03/18 03:07:48;;;;;;;2.23;2.03;;;;;;;2.38;100.00;91489.22;4995693;28;20223;-86
2021/03/18 03:10:18;;;;;;;1.80;1.70;;;;;;;2.38;100.00;91473.69;4995470;28;20236;-86
2021/03/18 03:12:46;;;;;;;3.43;1.60;;;;;;;2.23;100.00;91481.13;4995535;28;20280;-86
2021/03/18 03:15:14;;;;;;;1.60;1.50;;;;;;;2.47;100.00;91451.59;4995505;28;20283;-86
2021/03/18 03:17:42;;;;;;;1.53;1.43;;;;;;;2.29;100.00;91467.28;4995462;28;20271;-86
2021/03/18 03:20:11;;;;;;;1.63;1.53;;;;;;;2.23;100.00;91455.22;4995397;28;20291;-86
2021/03/18 03:22:40;;;;;;;2.47;2.27;;;;;;;2.03;100.00;91430.44;4995374;28;20200;-85
2021/03/18 03:25:10;;;;;;;2.73;2.33;;;;;;;1.83;100.00;91376.41;4995442;28;20192;-86
2021/03/18 03:27:38;;;;;;;2.97;2.77;;;;;;;1.73;100.00;91283.03;4995146;28;20197;-87
2021/03/18 03:30:08;;;;;;;3.63;3.33;;;;;;;1.58;100.00;91156.72;4995756;28;20235;-85
2021/03/18 03:32:35;;;;;;;3.57;3.27;;;;;;;1.69;100.00;91007.63;4995658;28;20321;-86
2021/03/18 03:35:02;;;;;;;3.87;3.57;;;;;;;1.79;100.00;90878.38;4995057;28;20258;-86
2021/03/18 03:37:29;;;;;;;5.00;3.97;;;;;;;1.82;100.00;90766.63;4995337;28;20239;-87
2021/03/18 03:39:56;;;;;;;4.60;4.20;;;;;;;1.94;100.00;90644.88;4995334;28;20601;-86
2021/03/18 03:42:24;;;;;;;4.73;3.73;;;;;;;2.06;100.00;90535.97;4994807;28;20276;-85
2021/03/18 03:44:51;;;;;;;4.93;4.03;;;;;;;2.05;100.00;90474.91;4994527;28;20266;-85
2021/03/18 03:47:18;;;;;;;4.67;4.17;;;;;;;2.13;100.00;90397.53;4994525;28;20314;-85
2021/03/18 03:49:45;;;;;;;5.67;3.73;;;;;;;2.22;100.00;90340.06;4994642;28;20200;-85
2021/03/18 03:52:22;;;;;;;3.83;3.43;;;;;;;2.22;100.00;90298.63;4994669;28;20557;-84
2021/03/18 03:54:57;;;;;;;3.13;2.83;;;;;;;2.37;100.00;90265.03;4994644;28;20184;-85
2021/03/18 03:57:32;;;;;;;3.17;2.97;;;;;;;2.31;100.00;90271.22;4994710;28;20188;-85
2021/03/18 04:00:02;;;;;;;3.23;2.97;;;;;;;2.27;100.00;90283.91;4994551;28;20192;-86
2021/03/18 04:02:30;;;;;;;3.70;3.40;;;;;;;2.25;100.00;90272.25;4994421;28;20275;-85
2021/03/18 04:04:59;;;;;;;4.83;4.33;;;;;;;2.21;100.00;90266.78;4994393;28;20688;-85
2021/03/18 04:07:30;;;;;;;6.93;6.10;;;;;;;2.33;100.00;90232.91;4994075;28;20291;-85
2021/03/18 04:10:00;;;;;;;5.83;5.30;;;;;;;2.39;100.00;90226.72;4994453;28;20279;-85
2021/03/18 04:12:33;;;;;;;5.40;4.90;;;;;;;2.24;100.00;90260.34;4993045;28;20200;-85
2021/03/18 04:15:07;;;;;;;6.67;5.03;;;;;;;2.31;100.00;90224.59;4994317;28;20275;-86
2021/03/18 04:17:34;;;;;;;5.23;4.70;;;;;;;2.12;100.00;90229.50;4993891;28;20203;-86
2021/03/18 04:20:05;;;;;;;6.27;5.47;;;;;;;2.09;100.00;90186.78;4994180;28;20232;-86
2021/03/18 04:22:33;;;;;;;20.23;10.00;;;;;;;2.06;100.00;90137.34;4993407;28;20185;-86
2021/03/18 04:25:01;;;;;;;18.40;9.33;;;;;;;2.10;100.00;90061.47;4994317;28;20736;-86
2021/03/18 04:27:37;;;;;;;17.87;8.57;;;;;;;2.08;100.00;90008.44;4993932;28;20291;-85
2021/03/18 04:30:07;;;;;;;14.43;8.93;;;;;;;2.19;100.00;89936.69;4976656;28;20215;-85
2021/03/18 04:32:34;;;;;;;22.30;12.57;;;;;;;2.17;100.00;89929.19;4993652;28;20200;-86
2021/03/18 04:35:01;;;;;;;14.40;8.80;;;;;;;2.21;100.00;89930.19;4993579;28;20200;-86
2021/03/18 04:37:30;;;;;;;71.03;42.47;;;;;;;2.04;100.00;89964.16;4993939;28;20201;-85
2021/03/18 04:39:56;;;;;;;12.70;9.57;;;;;;;1.98;100.00;89985.91;4993766;28;20290;-86
2021/03/18 04:42:24;;;;;;;6.30;5.70;;;;;;;1.98;100.00;89995.50;4994028;28;20655;-86
2021/03/18 04:44:52;;;;;;;8.67;7.40;;;;;;;1.95;100.00;89993.44;4993614;28;20241;-86
2021/03/18 04:47:20;;;;;;;4.87;4.47;;;;;;;1.94;100.00;90003.00;4993638;28;20298;-86
2021/03/18 04:49:49;;;;;;;34.83;23.07;;;;;;;1.90;100.00;90001.94;4993750;28;20204;-86
2021/03/18 04:52:17;;;;;;;12.40;10.23;;;;;;;1.87;100.00;89992.13;4993596;28;20254;-86
2021/03/18 04:54:44;;;;;;;11.87;9.63;;;;;;;1.83;100.00;89991.09;4993567;28;20204;-86
2021/03/18 04:57:15;;;;;;;6.57;5.33;;;;;;;1.82;100.00;89971.44;4993656;28;20196;-86
2021/03/18 04:59:43;;;;;;;5.03;4.53;;;;;;;1.80;100.00;89956.19;4993561;28;20684;-86
2021/03/18 05:02:14;;;;;;;5.33;4.30;;;;;;;1.83;100.00;89939.34;4993296;28;20200;-86
2021/03/18 05:04:42;;;;;;;5.00;4.50;;;;;;;1.76;100.00;89918.91;4993341;28;20200;-86
2021/03/18 05:07:10;;;;;;;7.93;7.03;;;;;;;1.89;100.00;89845.91;4993043;28;20662;-82
2021/03/18 05:09:38;;;;;;;32.63;19.67;;;;;;;2.03;100.00;89815.06;4999186;28;20214;-82
2021/03/18 05:12:08;;;;;;;9.97;8.47;;;;;;;2.10;100.00;89787.09;5001007;28;20273;-83
2021/03/18 05:14:35;;;;;;;7.30;6.40;;;;;;;2.06;100.00;89804.19;5007924;28;20279;-82
2021/03/18 05:17:03;;;;;;;11.00;9.90;;;;;;;1.95;100.00;89846.69;4992820;28;20287;-88
2021/03/18 05:19:31;;;;;;;7.90;6.93;;;;;;;1.88;100.00;89865.06;4992568;28;20291;-86
2021/03/18 05:21:59;;;;;;;6.83;6.07;;;;;;;1.92;100.00;89843.84;4992514;28;20200;-85
2021/03/18 05:24:27;;;;;;;4.30;3.90;;;;;;;1.88;100.00;89862.47;4992806;28;20196;-86
2021/03/18 05:26:54;;;;;;;4.60;4.17;;;;;;;1.88;100.00;89854.72;4992929;28;20319;-86
2021/03/18 05:29:21;;;;;;;5.30;4.80;;;;;;;1.90;100.00;89833.75;4992834;28;20200;-86
2021/03/18 05:31:48;;;;;;;21.30;15.63;;;;;;;2.01;100.00;89793.88;4993030;28;20291;-86
2021/03/18 05:34:14;;;;;;;11.97;10.67;;;;;;;2.13;100.00;89757.31;4993403;28;20291;-86
2021/03/18 05:36:42;;;;;;;6.37;5.77;;;;;;;2.18;100.00;89759.09;4992944;28;20200;-86
2021/03/18 05:39:09;;;;;;;6.10;5.60;;;;;;;2.27;100.00;89752.31;4993041;28;20283;-87
2021/03/18 05:41:37;;;;;;;22.13;15.53;;;;;;;2.43;100.00;89742.66;4992818;28;20287;-86
2021/03/18 05:44:05;;;;;;;58.30;36.13;;;;;;;2.45;100.00;89759.44;4993347;28;20200;-86
2021/03/18 05:46:33;;;;;;;41.63;29.77;;;;;;;2.56;100.00;89754.97;4992426;28;20313;-85
2021/03/18 05:49:02;;;;;;;54.47;38.40;;;;;;;2.64;100.00;89761.41;4992459;28;20192;-86
2021/03/18 05:51:30;;;;;;;28.13;21.67;;;;;;;2.67;100.00;89813.47;4993038;28;20200;-86
2021/03/18 05:53:58;;;;;;;14.50;11.37;;;;;;;2.65;100.00;89877.72;4992920;28;20259;-86
2021/03/18 05:56:25;;;;;;;18.57;15.37;;;;;;;2.66;100.00;89919.94;4993318;28;20643;-85
2021/03/18 05:58:53;;;;;;;11.73;10.53;;;;;;;2.66;100.00;89969.16;4992869;28;20196;-86
2021/03/18 06:01:20;;;;;;;8.43;7.60;;;;;;;2.66;100.00;90003.63;4992831;28;20200;-86
2021/03/18 06:03:47;;;;;;;7.10;6.50;;;;;;;2.77;100.00;90023.31;4992834;28;20665;-85
2021/03/18 06:06:15;;;;;;;7.87;7.17;;;;;;;2.76;100.00;90065.00;4992944;28;20318;-86
2021/03/18 06:08:42;;;;;;;19.90;13.87;;;;;;;2.81;100.00;90090.94;4992714;28;20235;-87
2021/03/18 06:11:11;;;;;;;24.07;15.73;;;;;;;2.86;100.00;90102.03;4992789;28;20199;-86
2021/03/18 06:13:38;;;;;;;61.40;37.73;;;;;;;2.97;100.00;90115.75;4992751;28;20200;-86
2021/03/18 06:16:07;;;;;;;46.93;35.37;;;;;;;2.98;100.00;90140.66;4992670;28;20247;-86
2021/03/18 06:18:35;;;;;;;134.80;67.40;;;;;;;3.02;100.00;90157.25;4993043;28;20605;-87
2021/03/18 06:21:03;;;;;;;37.23;29.07;;;;;;;3.03;100.00;90192.50;4992995;28;20224;-86
2021/03/18 06:23:31;;;;;;;10.47;9.47;;;;;;;3.12;100.00;90229.06;4992563;28;20291;-86
2021/03/18 06:25:58;;;;;;;13.00;10.93;;;;;;;3.20;100.00;90288.16;4992723;28;20240;-86
2021/03/18 06:28:27;;;;;;;19.37;15.23;;;;;;;3.27;100.00;90330.16;4993065;28;20200;-86
2021/03/18 06:31:15;;;;;;;40.70;33.83;;;;;;;3.28;100.00;90375.03;4992933;28;20291;-87
2021/03/18 06:33:47;;;;;;;20.30;18.17;;;;;;;3.31;100.00;90421.22;4992720;28;20245;-86
2021/03/18 06:36:26;;;;;;;9.07;8.17;;;;;;;3.46;100.00;90452.34;4994476;28;20235;-87
2021/03/18 06:39:01;;;;;;;5.97;5.40;;;;;;;3.48;100.00;90532.53;4996099;28;20215;-87
2021/03/18 06:41:36;;;;;;;5.87;5.03;;;;;;;3.58;100.00;90593.03;4996235;28;20195;-86
2021/03/18 06:44:06;;;;;;;6.73;4.40;;;;;;;3.75;100.00;90636.94;4996224;28;20275;-87
2021/03/18 06:46:32;;;;;;;4.27;3.87;;;;;;;3.71;100.00;90723.38;4995937;28;20235;-87
2021/03/18 06:49:12;;;;;;;5.47;4.83;;;;;;;3.64;100.00;90785.09;4996582;28;20231;-86
2021/03/18 06:51:39;;;;;;;6.23;3.90;;;;;;;3.72;100.00;90810.59;4996229;28;20219;-86
2021/03/18 06:54:18;;;;;;;3.80;3.50;;;;;;;3.58;100.00;90875.91;4996370;28;20204;-87
2021/03/18 06:56:53;;;;;;;3.60;3.30;;;;;;;3.48;100.00;90908.78;4996162;28;20243;-86
2021/03/18 06:59:22;;;;;;;3.67;3.37;;;;;;;3.56;100.00;90934.28;4996311;28;20198;-86
2021/03/18 07:02:03;;;;;;;3.77;2.83;;;;;;;3.70;100.00;90955.44;4995876;28;20206;-87
2021/03/18 07:04:33;;;;;;;3.03;2.77;;;;;;;3.74;100.00;91001.44;4995966;28;20195;-86
2021/03/18 07:07:00;;;;;;;4.57;4.13;;;;;;;3.76;100.00;91033.13;4995958;28;20219;-87
2021/03/18 07:09:29;;;;;;;6.27;5.13;;;;;;;3.67;100.00;91102.09;4996186;28;20639;-87
2021/03/18 07:12:01;;;;;;;4.37;3.80;;;;;;;3.73;100.00;91136.66;4996200;28;20688;-87
2021/03/18 07:14:40;;;;;;;12.23;9.13;;;;;;;3.95;100.00;91149.63;4996337;28;20208;-87
2021/03/18 07:17:08;;;;;;;4.00;3.70;;;;;;;3.91;100.00;91210.88;4995955;28;20239;-87
2021/03/18 07:19:35;;;;;;;3.03;2.77;;;;;;;4.06;100.00;91234.44;4995609;28;20295;-87
2021/03/18 07:22:05;;;;;;;4.70;4.10;;;;;;;4.17;100.00;91266.53;4995871;28;20646;-87
2021/03/18 07:24:34;;;;;;;2.33;2.17;;;;;;;4.37;100.00;91316.13;4995177;28;20215;-87
2021/03/18 07:27:09;;;;;;;3.93;3.63;;;;;;;4.45;100.00;91346.88;4995669;28;20315;-87
2021/03/18 07:29:40;;;;;;;2.93;2.70;;;;;;;4.56;100.00;91384.19;4995854;28;20570;-86
2021/03/18 07:32:07;;;;;;;2.43;2.23;;;;;;;4.69;100.00;91450.66;4995699;28;20207;-86
2021/03/18 07:34:34;;;;;;;2.30;2.10;;;;;;;4.74;100.00;91528.72;4995404;28;20200;-87
2021/03/18 07:37:02;;;;;;;2.03;1.93;;;;;;;4.96;100.00;91563.38;4995618;28;20203;-87
2021/03/18 07:39:30;;;;;;;3.00;2.70;;;;;;;5.14;100.00;91626.59;4995657;28;20283;-87
2021/03/18 07:41:59;;;;;;;15.60;8.70;;;;;;;5.17;100.00;91701.59;4995224;28;20200;-87
2021/03/18 07:44:26;;;;;;;8.37;5.50;;;;;;;5.43;100.00;91720.97;4995139;28;20207;-87
2021/03/18 07:46:56;;;;;;;7.10;4.87;;;;;;;5.29;100.00;91816.81;4994204;28;20219;-87
2021/03/18 07:49:27;;;;;;;4.63;3.93;;;;;;;5.47;100.00;91862.66;4995267;28;20200;-87
2021/03/18 07:51:57;;;;;;;3.77;3.00;;;;;;;5.73;100.00;91895.16;4995266;28;20188;-87
2021/03/18 07:54:25;;;;;;;1.63;1.53;;;;;;;5.46;100.00;91992.06;4995841;28;20188;-87
2021/03/18 07:56:54;;;;;;;2.63;2.10;;;;;;;5.48;100.00;92028.31;4995040;28;20267;-87
2021/03/18 07:59:22;;;;;;;4.00;3.60;;;;;;;5.46;100.00;92074.63;4994949;28;20283;-87
2021/03/18 08:01:49;;;;;;;3.33;3.03;;;;;;;5.45;100.00;92117.31;4995317;28;20255;-87
2021/03/18 08:04:17;;;;;;;3.13;2.93;;;;;;;5.51;100.00;92165.88;4995058;28;20197;-87
2021/03/18 08:06:49;;;;;;;3.40;2.90;;;;;;;5.49;100.00;92193.94;4994974;28;20227;-86
2021/03/18 08:09:20;;;;;;;4.10;3.47;;;;;;;5.64;100.00;92209.09;4994688;28;20287;-87
2021/03/18 08:11:48;;;;;;;3.93;3.63;;;;;;;5.62;100.00;92237.22;4994794;28;20189;-87
2021/03/18 08:14:16;;;;;;;2.50;2.30;;;;;;;5.39;100.00;92288.25;4994490;28;20197;-87
2021/03/18 08:16:43;;;;;;;2.50;2.30;;;;;;;5.34;100.00;92318.59;4994595;28;20196;-86
2021/03/18 08:19:12;;;;;;;2.27;2.07;;;;;;;5.46;100.00;92307.16;4994623;28;20203;-87
2021/03/18 08:21:41;;;;;;;2.50;2.30;;;;;;;5.65;100.00;92315.69;4994742;28;20224;-86
2021/03/18 08:24:11;;;;;;;2.40;2.07;;;;;;;5.56;100.00;92360.53;4994569;28;20196;-87
2021/03/18 08:26:45;;;;;;;2.50;2.10;;;;;;;5.54;100.00;92386.00;4994420;28;20212;-87
2021/03/18 08:29:20;;;;;;;1.90;1.80;;;;;;;5.62;100.00;92396.91;4994298;28;20195;-86
2021/03/18 08:31:53;;;;;;;2.50;2.30;;;;;;;5.78;100.00;92403.25;4994689;28;20271;-87
2021/03/18 08:34:21;;;;;;;1.57;1.47;;;;;;;5.46;100.00;92460.03;4994403;28;20293;-87
2021/03/18 08:36:57;;;;;;;2.33;2.17;;;;;;;5.68;100.00;92457.72;4994964;28;20637;-87
2021/03/18 08:39:44;;;;;;;2.03;1.90;;;;;;;5.85;100.00;92456.06;4994444;28;20207;-87
2021/03/18 08:42:40;;;;;;;3.93;2.77;;;;;;;5.95;100.00;92484.22;4994162;28;20184;-88
2021/03/18 08:45:10;;;;;;;2.87;2.60;;;;;;;5.77;100.00;92520.75;4993859;28;20228;-87
2021/03/18 08:47:39;;;;;;;3.80;3.17;;;;;;;5.46;100.00;92561.59;4994273;28;20314;-87
2021/03/18 08:50:09;;;;;;;2.17;2.00;;;;;;;5.50;100.00;92583.56;4994344;28;20199;-87
2021/03/18 08:52:40;;;;;;;2.87;2.57;;;;;;;5.84;100.00;92548.28;4994330;28;20224;-87
2021/03/18 08:55:09;;;;;;;1.73;1.63;;;;;;;5.73;100.00;92583.72;4993870;28;20231;-87
2021/03/18 08:57:35;;;;;;;2.50;2.30;;;;;;;5.81;100.00;92602.66;4993806;28;20207;-87
2021/03/18 09:00:14;;;;;;;3.40;3.10;;;;;;;5.91;100.00;92602.94;4993467;28;20204;-87
2021/03/18 09:02:42;;;;;;;2.20;2.00;;;;;;;5.94;100.00;92621.56;4994195;28;20191;-87
2021/03/18 09:05:13;;;;;;;2.23;1.70;;;;;;;5.98;100.00;92634.16;4993912;28;20200;-87
2021/03/18 09:07:41;;;;;;;2.00;1.90;;;;;;;6.00;100.00;92643.38;4993524;28;20204;-87
2021/03/18 09:10:11;;;;;;;3.77;3.00;;;;;;;5.93;100.00;92647.88;4993529;28;20200;-88
2021/03/18 09:12:47;;;;;;;14.93;11.87;;;;;;;6.02;100.00;92632.72;4993751;28;20192;-88
2021/03/18 09:15:21;;;;;;;5.20;4.70;;;;;;;5.86;100.00;92627.06;4993812;28;20199;-87
2021/03/18 09:17:50;;;;;;;4.20;3.77;;;;;;;5.73;100.00;92603.75;4994028;28;20238;-87
2021/03/18 09:20:20;;;;;;;3.53;3.10;;;;;;;5.95;100.00;92573.63;4993356;28;20290;-87
2021/03/18 09:22:48;;;;;;;5.67;3.27;;;;;;;5.86;100.00;92580.16;4993915;28;20284;-87
2021/03/18 09:25:16;;;;;;;24.27;21.00;;;;;;;5.90;100.00;92573.47;4993655;28;20598;-87
2021/03/18 09:27:44;;;;;;;9.47;7.63;;;;;;;5.79;100.00;92557.81;4993586;28;20651;-87
2021/03/18 09:30:27;;;;;;;12.07;10.57;;;;;;;5.78;100.00;92533.53;4993378;28;20274;-87
2021/03/18 09:32:55;;;;;;;4.67;4.27;;;;;;;5.58;100.00;92530.41;4993605;28;20187;-87
2021/03/18 09:35:23;;;;;;;4.83;4.10;;;;;;;5.64;100.00;92514.69;4994103;28;20689;-87
2021/03/18 09:37:52;;;;;;;5.10;4.30;;;;;;;5.55;100.00;92517.81;4993413;28;20372;-87
2021/03/18 09:40:30;;;;;;;3.87;3.57;;;;;;;5.50;100.00;92515.84;4993568;28;20688;-88
2021/03/18 09:42:57;;;;;;;6.80;4.87;;;;;;;5.60;100.00;92533.59;4993489;28;20196;-88
2021/03/18 09:45:24;;;;;;;5.00;4.50;;;;;;;5.64;100.00;92525.09;4993306;28;20322;-87
2021/03/18 09:47:53;;;;;;;4.53;4.13;;;;;;;5.58;100.00;92539.03;4993255;28;20282;-87
2021/03/18 09:50:24;;;;;;;4.80;4.40;;;;;;;5.59;100.00;92538.00;4993473;28;20712;-87
2021/03/18 09:53:04;;;;;;;3.83;3.50;;;;;;;5.45;100.00;92552.19;4993115;28;20192;-87
2021/03/18 09:55:31;;;;;;;4.13;3.83;;;;;;;5.52;100.00;92526.06;4993514;28;20641;-87
2021/03/18 09:58:06;;;;;;;3.80;3.50;;;;;;;5.62;100.00;92516.72;4993279;28;20200;-87
2021/03/18 10:00:33;;;;;;;8.27;7.20;;;;;;;5.87;100.00;92507.97;4993481;28;20188;-87
2021/03/18 10:03:00;;;;;;;3.90;3.60;;;;;;;5.85;100.00;92531.63;4993463;28;20223;-87
2021/03/18 10:05:27;;;;;;;4.20;3.80;;;;;;;5.88;100.00;92551.25;4993183;28;20242;-87
2021/03/18 10:07:56;;;;;;;3.80;3.50;;;;;;;5.89;100.00;92574.50;4993108;28;20290;-87
2021/03/18 10:10:23;;;;;;;3.87;3.57;;;;;;;5.94;100.00;92597.31;4993807;28;20389;-87
2021/03/18 10:12:52;;;;;;;4.23;3.37;;;;;;;5.98;100.00;92613.31;4997262;28;20246;-88
2021/03/18 10:15:20;;;;;;;3.37;3.07;;;;;;;5.96;100.00;92623.97;4996803;28;20196;-88
2021/03/18 10:17:48;;;;;;;7.00;4.73;;;;;;;5.97;100.00;92640.41;4996897;28;20200;-88
2021/03/18 10:20:18;;;;;;;4.13;3.73;;;;;;;5.84;100.00;92668.16;4996977;28;20240;-87
2021/03/18 10:22:49;;;;;;;2.90;2.60;;;;;;;5.87;100.00;92675.56;4996764;28;20208;-87
2021/03/18 10:25:19;;;;;;;3.07;2.87;;;;;;;6.02;100.00;92672.59;4996930;28;20235;-87
2021/03/18 10:27:48;;;;;;;3.70;2.87;;;;;;;6.09;100.00;92681.13;4997031;28;20220;-87
2021/03/18 10:30:18;;;;;;;2.57;2.37;;;;;;;5.92;100.00;92706.16;4996779;28;20210;-87
2021/03/18 10:33:05;;;;;;;3.03;2.83;;;;;;;5.72;100.00;92722.81;4996509;28;20291;-87
2021/03/18 10:35:34;;;;;;;3.37;2.30;;;;;;;5.78;100.00;92722.97;4996806;28;20564;-86
2021/03/18 10:38:00;;;;;;;3.73;2.63;;;;;;;5.66;100.00;92748.94;4996341;28;20204;-87
2021/03/18 10:40:29;;;;;;;2.57;2.37;;;;;;;5.72;100.00;92771.53;4996691;28;20236;-86
2021/03/18 10:42:58;;;;;;;5.07;4.60;;;;;;;5.53;100.00;92790.72;4996505;28;20204;-87
2021/03/18 10:45:31;;;;;;;3.30;3.00;;;;;;;5.45;100.00;92761.34;4996131;28;20763;-87
2021/03/18 10:48:01;;;;;;;2.60;2.40;;;;;;;5.32;100.00;92747.63;4996540;28;20263;-86
2021/03/18 10:50:31;;;;;;;3.40;3.10;;;;;;;5.21;100.00;92713.47;4996514;28;20290;-87
2021/03/18 10:53:01;;;;;;;3.73;3.23;;;;;;;4.95;100.00;92685.84;4996115;28;20192;-87
2021/03/18 10:55:32;;;;;;;2.57;2.37;;;;;;;4.70;100.00;92644.19;4995959;28;20235;-87
2021/03/18 10:58:02;;;;;;;3.33;3.03;;;;;;;4.52;100.00;92598.09;4996433;28;20189;-87
2021/03/18 11:00:31;;;;;;;5.17;4.00;;;;;;;4.27;100.00;92560.91;4995908;28;20232;-86
2021/03/18 11:03:09;;;;;;;3.30;3.00;;;;;;;4.30;100.00;92485.09;4995855;28;20243;-87
2021/03/18 11:05:44;;;;;;;4.70;4.30;;;;;;;4.30;100.00;92414.91;4996377;28;20227;-86
2021/03/18 11:08:12;;;;;;;4.03;3.63;;;;;;;4.37;100.00;92340.25;4996152;28;20191;-86
2021/03/18 11:10:43;;;;;;;7.90;6.03;;;;;;;4.44;100.00;92294.16;4995961;28;20197;-86
2021/03/18 11:13:13;;;;;;;5.03;4.53;;;;;;;4.53;100.00;92217.44;4996276;28;20547;-87
2021/03/18 11:15:48;;;;;;;3.27;2.97;;;;;;;4.58;100.00;92143.19;4995649;28;20205;-87
2021/03/18 11:18:16;;;;;;;4.10;3.80;;;;;;;5.10;100.00;92026.25;4996079;28;20234;-87
2021/03/18 11:20:45;;;;;;;4.90;3.00;;;;;;;5.00;100.00;91999.00;4996122;28;20739;-87
2021/03/18 11:23:13;;;;;;;7.57;6.77;;;;;;;5.40;100.00;91925.34;4995591;28;20628;-87
2021/03/18 11:25:42;;;;;;;8.63;7.33;;;;;;;5.46;100.00;91944.41;4995548;28;20204;-86
2021/03/18 11:28:15;;;;;;;7.87;7.00;;;;;;;5.68;100.00;91957.56;4995558;28;20231;-87
2021/03/18 11:30:43;;;;;;;15.03;12.20;;;;;;;5.68;100.00;91994.84;4995563;28;20201;-86
2021/03/18 11:33:15;;;;;;;11.70;8.77;;;;;;;5.93;100.00;91965.84;4995519;28;20200;-87
2021/03/18 11:35:45;;;;;;;73.33;42.30;;;;;;;5.79;100.00;92008.06;4995838;28;20200;-87
2021/03/18 11:38:12;;;;;;;41.13;26.13;;;;;;;5.84;100.00;92001.09;4995357;28;20200;-86
2021/03/18 11:40:40;;;;;;;10.10;8.00;;;;;;;5.89;100.00;91998.59;4995139;28;20299;-87
2021/03/18 11:43:08;;;;;;;5.93;5.33;;;;;;;6.07;100.00;92002.03;4995324;28;20296;-87
2021/03/18 11:45:35;;;;;;;6.77;6.17;;;;;;;6.23;100.00;92019.50;4995274;28;20235;-87